Time;durP1;ratioP1;P1;durP2;ratioP2;P2;SDS_P1;SDS_P2;PMS_P1;PMS_P2;Temp;Humidity;BMP_temperature;BMP_pressure;BME280_temperature;BME280_humidity;BME280_pressure;Samples;Min_cycle;Max_cycle;Signal;HPM_P1;HPM_P2
2022/06/12 00:01:50;;;;;;;2.40;1.80;;;;;;;;;;5037268;28;20142;-86
2022/06/12 00:04:17;;;;;;;3.00;1.70;;;;;;;;;;5035816;28;20037;-86
2022/06/12 00:06:42;;;;;;;4.68;1.70;;;;;;;;;;5037622;28;20029;-85
2022/06/12 00:09:08;;;;;;;2.50;1.80;;;;;;;;;;5037407;28;20025;-85
2022/06/12 00:11:34;;;;;;;4.35;1.80;;;;;;;;;;5037397;28;20037;-85
2022/06/12 00:14:03;;;;;;;3.03;1.90;;;;;;;;;;5019453;28;20103;-84
2022/06/12 00:16:31;;;;;;;2.70;1.70;;;;;;;;;;5036598;28;20041;-85
2022/06/12 00:18:57;;;;;;;5.70;2.00;;;;;;;;;;5037744;28;20068;-85
2022/06/12 00:21:23;;;;;;;3.30;2.00;;;;;;;;;;5036079;28;20029;-85
2022/06/12 00:23:52;;;;;;;2.60;1.70;;;;;;;;;;5035889;28;20037;-85
2022/06/12 00:26:29;;;;;;;2.75;1.90;;;;;;;;;;5036745;28;20052;-85
2022/06/12 00:29:25;;;;;;;3.10;1.80;;;;;;;;;;5037096;28;20029;-85
2022/06/12 00:31:57;;;;;;;2.55;1.63;;;;;;;;;;5036528;28;20048;-85
2022/06/12 00:34:26;;;;;;;3.03;1.70;;;;;;;;;;5036654;28;20048;-84
2022/06/12 00:36:53;;;;;;;2.40;1.83;;;;;;;;;;5035563;28;20038;-85
2022/06/12 00:39:19;;;;;;;3.25;2.00;;;;;;;;;;5035673;28;20060;-84
2022/06/12 00:41:46;;;;;;;3.78;2.00;;;;;;;;;;5037774;28;20482;-84
2022/06/12 00:44:16;;;;;;;3.75;1.88;;;;;;;;;;5036370;28;20474;-84
2022/06/12 00:46:48;;;;;;;3.38;1.95;;;;;;;;;;5036999;28;20061;-84
2022/06/12 00:49:23;;;;;;;2.10;1.73;;;;;;;;;;5034647;28;20454;-84
2022/06/12 00:52:06;;;;;;;2.95;1.80;;;;;;;;;;5035957;28;20099;-84
2022/06/12 00:54:33;;;;;;;4.97;1.80;;;;;;;;;;5018075;28;20061;-84
2022/06/12 00:57:02;;;;;;;4.35;1.90;;;;;;;;;;5036472;28;20087;-86
2022/06/12 00:59:44;;;;;;;2.20;1.73;;;;;;;;;;5039062;28;20038;-86
2022/06/12 01:02:15;;;;;;;2.53;1.90;;;;;;;;;;5041066;28;20040;-85
2022/06/12 01:07:32;;;;;;;3.25;2.00;;;;;;;;;;5039402;28;20037;-85
2022/06/12 01:10:01;;;;;;;3.45;1.90;;;;;;;;;;5040648;28;20068;-85
2022/06/12 01:12:31;;;;;;;2.05;1.80;;;;;;;;;;5039044;28;20029;-85
2022/06/12 01:15:04;;;;;;;2.35;1.90;;;;;;;;;;5039095;28;20041;-84
2022/06/12 01:17:31;;;;;;;3.20;1.85;;;;;;;;;;5039429;28;20041;-85
2022/06/12 01:20:01;;;;;;;2.58;2.00;;;;;;;;;;5040519;28;20037;-85
2022/06/12 01:23:00;;;;;;;3.72;2.10;;;;;;;;;;5039817;28;20029;-84
2022/06/12 01:25:53;;;;;;;2.45;2.00;;;;;;;;;;5039932;28;20094;-85
2022/06/12 01:28:47;;;;;;;5.00;2.35;;;;;;;;;;5039565;28;20128;-85
2022/06/12 01:31:22;;;;;;;3.22;1.90;;;;;;;;;;5039630;28;20042;-85
2022/06/12 01:34:15;;;;;;;2.92;1.90;;;;;;;;;;5039790;28;20048;-85
2022/06/12 01:36:56;;;;;;;2.90;1.83;;;;;;;;;;5039848;28;20048;-85
2022/06/12 01:40:06;;;;;;;2.63;1.92;;;;;;;;;;5040589;28;20561;-85
2022/06/12 01:42:34;;;;;;;2.55;1.83;;;;;;;;;;5017220;28;20061;-85
2022/06/12 01:45:03;;;;;;;2.83;1.90;;;;;;;;;;5039177;28;20033;-85
2022/06/12 01:47:57;;;;;;;2.40;1.90;;;;;;;;;;5039012;28;20037;-85
2022/06/12 01:50:58;;;;;;;2.38;1.90;;;;;;;;;;5039823;28;20424;-85
2022/06/12 01:53:37;;;;;;;4.95;2.00;;;;;;;;;;5039093;28;20037;-85
2022/06/12 01:56:24;;;;;;;3.78;2.22;;;;;;;;;;5039193;28;20033;-85
2022/06/12 01:58:55;;;;;;;2.53;2.00;;;;;;;;;;5039591;28;20069;-85
2022/06/12 02:01:52;;;;;;;2.70;1.90;;;;;;;;;;5037124;28;20037;-85
2022/06/12 02:04:39;;;;;;;4.05;2.00;;;;;;;;;;5021292;28;20457;-85
2022/06/12 02:07:18;;;;;;;3.35;2.00;;;;;;;;;;5039368;28;20041;-85
2022/06/12 02:10:06;;;;;;;2.95;2.20;;;;;;;;;;5037407;28;20486;-85
2022/06/12 02:15:31;;;;;;;2.35;2.08;;;;;;;;;;5038482;28;20030;-85
2022/06/12 02:18:05;;;;;;;2.47;1.90;;;;;;;;;;5038080;28;20134;-85
2022/06/12 02:20:38;;;;;;;3.22;1.95;;;;;;;;;;5039276;28;20040;-85
2022/06/12 02:23:10;;;;;;;3.05;2.28;;;;;;;;;;5037598;28;20052;-85
2022/06/12 02:25:40;;;;;;;3.15;1.77;;;;;;;;;;5038491;28;20033;-85
2022/06/12 02:28:12;;;;;;;3.05;2.10;;;;;;;;;;5038736;28;20041;-85
2022/06/12 02:30:42;;;;;;;4.03;2.20;;;;;;;;;;5039312;28;20045;-84
2022/06/12 02:33:23;;;;;;;2.95;2.00;;;;;;;;;;5038034;28;20092;-84
2022/06/12 02:35:56;;;;;;;3.60;2.10;;;;;;;;;;5036895;28;20128;-85
2022/06/12 02:38:27;;;;;;;3.07;2.10;;;;;;;;;;5039044;28;20113;-85
2022/06/12 02:40:57;;;;;;;3.92;2.13;;;;;;;;;;5037650;28;20091;-85
2022/06/12 02:43:27;;;;;;;2.92;2.00;;;;;;;;;;5039292;28;20041;-84
2022/06/12 02:45:55;;;;;;;2.38;2.03;;;;;;;;;;5037869;28;20041;-84
2022/06/12 02:48:21;;;;;;;2.65;2.10;;;;;;;;;;5038356;28;20092;-85
2022/06/12 02:51:23;;;;;;;3.80;2.15;;;;;;;;;;5037139;28;20040;-85
2022/06/12 02:54:16;;;;;;;4.82;2.25;;;;;;;;;;5035861;28;20391;-85
2022/06/12 02:56:48;;;;;;;4.20;2.20;;;;;;;;;;5036766;28;20025;-85
2022/06/12 02:59:35;;;;;;;4.07;2.17;;;;;;;;;;5037294;28;20048;-84
2022/06/12 03:02:16;;;;;;;4.82;2.33;;;;;;;;;;5038501;28;20041;-84
2022/06/12 03:04:51;;;;;;;2.70;2.22;;;;;;;;;;5037852;28;20440;-84
2022/06/12 03:07:16;;;;;;;4.57;2.20;;;;;;;;;;5037951;28;20073;-84
2022/06/12 03:09:42;;;;;;;2.92;2.10;;;;;;;;;;5037148;28;20496;-84
2022/06/12 03:12:08;;;;;;;2.42;2.10;;;;;;;;;;5038106;28;20053;-85
2022/06/12 03:14:34;;;;;;;2.75;2.13;;;;;;;;;;5035510;28;20095;-84
2022/06/12 03:17:00;;;;;;;2.88;1.95;;;;;;;;;;5036792;28;20042;-84
2022/06/12 03:19:31;;;;;;;4.93;2.30;;;;;;;;;;5038323;28;20064;-84
2022/06/12 03:22:09;;;;;;;3.78;2.10;;;;;;;;;;5037346;28;20045;-84
2022/06/12 03:24:38;;;;;;;2.53;2.10;;;;;;;;;;5034637;28;20033;-84
2022/06/12 03:27:10;;;;;;;3.03;2.40;;;;;;;;;;5038123;28;20104;-84
2022/06/12 03:29:54;;;;;;;3.83;2.20;;;;;;;;;;5036683;28;20042;-84
2022/06/12 03:32:44;;;;;;;3.75;2.10;;;;;;;;;;5036444;28;20033;-84
2022/06/12 03:35:16;;;;;;;5.72;2.30;;;;;;;;;;5036195;28;20515;-84
2022/06/12 03:37:53;;;;;;;2.78;2.22;;;;;;;;;;5036473;28;20387;-84
2022/06/12 03:41:11;;;;;;;3.00;2.20;;;;;;;;;;5037604;28;20087;-84
2022/06/12 03:43:54;;;;;;;8.55;2.15;;;;;;;;;;4997862;28;20144;-84
2022/06/12 03:47:04;;;;;;;2.60;2.10;;;;;;;;;;5037477;28;20041;-84
2022/06/12 03:49:50;;;;;;;5.43;2.13;;;;;;;;;;5023414;28;20037;-84
2022/06/12 03:52:20;;;;;;;3.75;2.15;;;;;;;;;;5037521;28;20040;-84
2022/06/12 03:54:56;;;;;;;2.88;2.10;;;;;;;;;;5036386;28;20036;-84
2022/06/12 03:57:53;;;;;;;2.65;2.00;;;;;;;;;;5037658;28;20038;-84
2022/06/12 04:00:32;;;;;;;4.82;2.30;;;;;;;;;;5035985;28;20049;-84
2022/06/12 04:03:03;;;;;;;2.70;2.20;;;;;;;;;;5035384;28;20037;-84
2022/06/12 04:05:43;;;;;;;4.03;2.42;;;;;;;;;;5035342;28;20056;-84
2022/06/12 04:08:19;;;;;;;3.00;2.00;;;;;;;;;;5035922;28;20116;-84
2022/06/12 04:10:46;;;;;;;2.88;2.22;;;;;;;;;;5035874;28;20461;-83
2022/06/12 04:13:15;;;;;;;3.78;2.38;;;;;;;;;;5036497;28;20107;-84
2022/06/12 04:16:04;;;;;;;4.25;2.33;;;;;;;;;;5035259;28;20080;-84
2022/06/12 04:18:31;;;;;;;2.97;2.20;;;;;;;;;;5037318;28;20420;-84
2022/06/12 04:21:02;;;;;;;3.80;2.17;;;;;;;;;;5036062;28;20572;-84
2022/06/12 04:23:54;;;;;;;4.32;2.10;;;;;;;;;;5035522;28;20512;-84
2022/06/12 04:26:38;;;;;;;3.65;2.10;;;;;;;;;;5020712;28;20099;-84
2022/06/12 04:29:29;;;;;;;3.22;2.17;;;;;;;;;;5036625;28;20124;-84
2022/06/12 04:31:57;;;;;;;3.85;2.30;;;;;;;;;;5034078;28;20038;-84
2022/06/12 04:34:34;;;;;;;2.78;2.15;;;;;;;;;;5033905;28;20044;-84
2022/06/12 04:37:09;;;;;;;3.03;2.35;;;;;;;;;;5036229;28;20048;-84
2022/06/12 04:39:35;;;;;;;3.58;2.25;;;;;;;;;;5036651;28;20128;-84
2022/06/12 04:42:02;;;;;;;2.33;2.10;;;;;;;;;;5035390;28;20393;-84
2022/06/12 04:44:29;;;;;;;3.47;2.45;;;;;;;;;;5034695;28;20059;-84
2022/06/12 04:46:56;;;;;;;3.60;2.15;;;;;;;;;;5037024;28;20080;-84
2022/06/12 04:49:30;;;;;;;4.63;2.40;;;;;;;;;;5036587;28;20069;-84
2022/06/12 04:51:58;;;;;;;4.13;2.38;;;;;;;;;;5035522;28;20040;-84
2022/06/12 04:54:25;;;;;;;3.58;2.20;;;;;;;;;;5035382;28;20045;-84
2022/06/12 04:56:50;;;;;;;3.45;2.55;;;;;;;;;;5036528;28;20540;-84
2022/06/12 04:59:18;;;;;;;5.45;2.40;;;;;;;;;;5034896;28;20049;-84
2022/06/12 05:01:45;;;;;;;3.63;2.30;;;;;;;;;;5036703;28;20044;-84
2022/06/12 05:04:11;;;;;;;2.90;2.25;;;;;;;;;;5035851;28;20112;-84
2022/06/12 05:06:39;;;;;;;5.93;2.35;;;;;;;;;;5036664;28;20044;-85
2022/06/12 05:09:05;;;;;;;3.60;2.47;;;;;;;;;;5036511;28;20042;-84
2022/06/12 05:11:30;;;;;;;2.38;2.03;;;;;;;;;;5036092;28;20033;-84
2022/06/12 05:13:56;;;;;;;3.05;2.28;;;;;;;;;;5035855;28;20044;-83
2022/06/12 05:16:34;;;;;;;2.83;2.33;;;;;;;;;;5033641;28;20087;-84
2022/06/12 05:19:00;;;;;;;2.97;2.20;;;;;;;;;;5033965;28;20038;-84
2022/06/12 05:21:28;;;;;;;3.00;2.50;;;;;;;;;;5036322;28;20124;-84
2022/06/12 05:23:54;;;;;;;5.15;2.47;;;;;;;;;;5035775;28;20021;-84
2022/06/12 05:26:20;;;;;;;3.00;2.22;;;;;;;;;;5034304;28;20124;-84
2022/06/12 05:28:46;;;;;;;4.82;2.50;;;;;;;;;;5036427;28;20029;-85
2022/06/12 05:31:12;;;;;;;3.08;2.20;;;;;;;;;;5034884;28;20060;-85
2022/06/12 05:33:38;;;;;;;3.40;2.20;;;;;;;;;;5036082;28;20037;-85
2022/06/12 05:36:05;;;;;;;3.67;2.40;;;;;;;;;;5033776;28;20033;-85
2022/06/12 05:38:31;;;;;;;4.40;2.22;;;;;;;;;;5034785;28;20402;-84
2022/06/12 05:40:56;;;;;;;4.25;2.35;;;;;;;;;;5036272;28;20477;-85
2022/06/12 05:43:22;;;;;;;3.67;2.42;;;;;;;;;;5035485;28;20042;-85
2022/06/12 05:45:47;;;;;;;5.13;2.33;;;;;;;;;;5039508;28;20091;-85
2022/06/12 05:48:18;;;;;;;3.80;2.13;;;;;;;;;;5039078;28;20045;-85
2022/06/12 05:50:48;;;;;;;4.70;2.35;;;;;;;;;;5022152;28;20043;-85
2022/06/12 05:53:14;;;;;;;4.40;2.30;;;;;;;;;;5040277;28;20041;-85
2022/06/12 05:55:40;;;;;;;3.05;2.30;;;;;;;;;;5038322;28;20561;-85
2022/06/12 05:58:06;;;;;;;2.60;2.10;;;;;;;;;;5040345;28;20033;-85
2022/06/12 06:00:33;;;;;;;5.03;2.10;;;;;;;;;;5036285;28;20120;-84
2022/06/12 06:02:59;;;;;;;3.35;2.00;;;;;;;;;;5018524;28;20120;-84
2022/06/12 06:05:26;;;;;;;2.88;2.10;;;;;;;;;;5018111;28;20129;-84
2022/06/12 06:07:51;;;;;;;2.55;2.10;;;;;;;;;;5018693;28;20033;-85
2022/06/12 06:10:24;;;;;;;3.17;2.00;;;;;;;;;;5018526;28;20033;-84
2022/06/12 06:12:49;;;;;;;2.83;2.13;;;;;;;;;;5017392;28;20034;-84
2022/06/12 06:15:15;;;;;;;4.47;2.17;;;;;;;;;;5016963;28;20044;-85
2022/06/12 06:17:41;;;;;;;3.22;2.05;;;;;;;;;;5019527;28;20030;-85
2022/06/12 06:20:09;;;;;;;3.60;2.30;;;;;;;;;;5019149;28;20375;-85
2022/06/12 06:22:34;;;;;;;2.08;1.75;;;;;;;;;;5019121;28;20044;-86
2022/06/12 06:25:00;;;;;;;2.90;2.00;;;;;;;;;;5019340;28;20026;-87
2022/06/12 06:27:26;;;;;;;4.40;2.00;;;;;;;;;;5018095;28;20471;-87
2022/06/12 06:29:51;;;;;;;2.67;2.00;;;;;;;;;;5019435;28;20048;-86
2022/06/12 06:32:17;;;;;;;5.55;2.20;;;;;;;;;;5019395;28;20045;-86
2022/06/12 06:34:42;;;;;;;7.13;1.98;;;;;;;;;;5017586;28;20063;-86
2022/06/12 06:37:10;;;;;;;3.08;1.70;;;;;;;;;;5018733;28;20100;-86
2022/06/12 06:39:37;;;;;;;4.10;2.00;;;;;;;;;;5020162;28;20037;-86
2022/06/12 06:42:03;;;;;;;2.83;1.92;;;;;;;;;;5018325;28;20030;-86
2022/06/12 06:47:13;;;;;;;2.88;1.83;;;;;;;;;;5019284;28;20545;-88
2022/06/12 06:49:39;;;;;;;3.42;1.88;;;;;;;;;;5017735;28;20486;-87
2022/06/12 06:52:04;;;;;;;3.88;2.20;;;;;;;;;;5018529;28;20038;-87
2022/06/12 06:54:30;;;;;;;3.58;2.05;;;;;;;;;;5017534;28;20084;-87
2022/06/12 06:56:56;;;;;;;3.10;1.80;;;;;;;;;;5018047;28;20471;-87
2022/06/12 06:59:22;;;;;;;2.15;1.80;;;;;;;;;;5019365;28;20034;-87
2022/06/12 07:01:47;;;;;;;3.78;1.95;;;;;;;;;;5019328;28;20022;-87
2022/06/12 07:04:13;;;;;;;2.25;1.88;;;;;;;;;;5018331;28;20049;-88
2022/06/12 07:06:39;;;;;;;2.85;1.90;;;;;;;;;;5018267;28;20486;-87
2022/06/12 07:09:05;;;;;;;2.85;1.70;;;;;;;;;;5019241;28;20034;-88
2022/06/12 07:11:32;;;;;;;2.72;1.98;;;;;;;;;;5018655;28;20124;-87
2022/06/12 07:13:58;;;;;;;2.22;1.77;;;;;;;;;;5032312;28;20489;-86
2022/06/12 07:16:24;;;;;;;3.72;1.80;;;;;;;;;;5048801;28;20041;-87
2022/06/12 07:18:50;;;;;;;3.10;1.75;;;;;;;;;;5038864;28;20037;-86
2022/06/12 07:21:16;;;;;;;3.28;1.90;;;;;;;;;;5036038;28;20405;-87
2022/06/12 07:23:42;;;;;;;2.53;1.75;;;;;;;;;;5038597;28;20061;-87
2022/06/12 07:26:29;;;;;;;3.80;2.00;;;;;;;;;;5037808;28;20466;-87
2022/06/12 07:28:55;;;;;;;2.92;2.08;;;;;;;;;;5036653;28;20041;-87
2022/06/12 07:31:22;;;;;;;2.72;1.73;;;;;;;;;;5035317;28;20117;-87
2022/06/12 07:33:48;;;;;;;3.13;1.90;;;;;;;;;;5035247;28;20532;-87
2022/06/12 07:36:15;;;;;;;3.47;1.90;;;;;;;;;;5034853;28;20558;-87
2022/06/12 07:38:42;;;;;;;4.22;2.00;;;;;;;;;;5036340;28;20030;-87
2022/06/12 07:41:09;;;;;;;3.20;1.73;;;;;;;;;;5028227;28;20037;-86
2022/06/12 07:43:37;;;;;;;2.25;1.80;;;;;;;;;;5016415;28;20046;-87
2022/06/12 07:46:05;;;;;;;2.90;1.85;;;;;;;;;;5014754;28;20032;-87
2022/06/12 07:48:31;;;;;;;3.05;1.70;;;;;;;;;;5045180;28;20048;-88
2022/06/12 07:50:58;;;;;;;2.70;1.60;;;;;;;;;;5056261;28;20036;-86
2022/06/12 07:53:23;;;;;;;2.90;1.73;;;;;;;;;;5055763;28;20037;-87
2022/06/12 07:55:50;;;;;;;2.10;1.67;;;;;;;;;;5054018;28;20094;-87
2022/06/12 07:58:17;;;;;;;3.17;1.70;;;;;;;;;;5055030;28;20098;-87
2022/06/12 08:00:43;;;;;;;2.05;1.63;;;;;;;;;;5056250;28;20037;-87
2022/06/12 08:03:09;;;;;;;2.60;1.70;;;;;;;;;;5057884;28;20086;-86
2022/06/12 08:05:35;;;;;;;3.55;1.70;;;;;;;;;;5055189;28;20033;-87
2022/06/12 08:08:01;;;;;;;1.92;1.50;;;;;;;;;;5053520;28;20076;-86
2022/06/12 08:10:27;;;;;;;4.80;1.73;;;;;;;;;;5054977;28;20036;-85
2022/06/12 08:12:55;;;;;;;3.33;1.50;;;;;;;;;;5056014;28;20037;-87
2022/06/12 08:15:24;;;;;;;1.70;1.40;;;;;;;;;;5058103;28;20055;-88
2022/06/12 08:17:53;;;;;;;4.78;1.60;;;;;;;;;;5058798;28;20088;-86
2022/06/12 08:20:25;;;;;;;2.05;1.60;;;;;;;;;;5057392;28;20060;-87
2022/06/12 08:23:03;;;;;;;2.42;1.70;;;;;;;;;;5057465;28;20032;-87
2022/06/12 08:25:34;;;;;;;4.03;1.45;;;;;;;;;;5055974;28;20040;-86
2022/06/12 08:28:00;;;;;;;1.65;1.30;;;;;;;;;;5057351;28;20491;-86
2022/06/12 08:30:27;;;;;;;2.28;1.50;;;;;;;;;;5056990;28;20502;-88
2022/06/12 08:32:55;;;;;;;2.63;1.60;;;;;;;;;;5054741;28;20036;-87
2022/06/12 08:35:27;;;;;;;2.78;1.63;;;;;;;;;;5055026;28;20033;-87
2022/06/12 08:37:54;;;;;;;3.25;1.38;;;;;;;;;;5055652;28;20029;-88
2022/06/12 08:40:52;;;;;;;3.05;1.50;;;;;;;;;;5055593;28;20077;-87
2022/06/12 08:43:38;;;;;;;3.58;1.30;;;;;;;;;;5053747;28;20045;-87
2022/06/12 08:46:11;;;;;;;1.17;1.05;;;;;;;;;;5054228;28;20033;-87
2022/06/12 08:48:55;;;;;;;2.67;1.40;;;;;;;;;;5054014;28;20043;-87
2022/06/12 08:51:30;;;;;;;1.13;1.00;;;;;;;;;;5053248;28;20126;-86
2022/06/12 08:54:04;;;;;;;3.42;1.30;;;;;;;;;;5054635;28;20037;-87
2022/06/12 08:56:38;;;;;;;3.83;1.20;;;;;;;;;;5056841;28;20043;-88
2022/06/12 08:59:19;;;;;;;1.70;1.30;;;;;;;;;;5054854;28;20048;-87
2022/06/12 09:01:45;;;;;;;2.55;1.10;;;;;;;;;;5054666;28;20101;-87
2022/06/12 09:04:19;;;;;;;2.22;1.30;;;;;;;;;;5053915;28;20064;-89
2022/06/12 09:07:11;;;;;;;1.73;1.10;;;;;;;;;;5055151;28;20036;-88
2022/06/12 09:09:57;;;;;;;1.75;1.05;;;;;;;;;;5054476;28;20048;-88
2022/06/12 09:12:55;;;;;;;2.25;1.30;;;;;;;;;;5056301;28;20041;-87
2022/06/12 09:15:45;;;;;;;1.42;1.05;;;;;;;;;;5054605;28;20101;-88
2022/06/12 09:18:49;;;;;;;1.58;1.10;;;;;;;;;;5054353;28;20087;-89
2022/06/12 09:21:48;;;;;;;1.77;1.17;;;;;;;;;;5059758;28;20033;-87
2022/06/12 09:24:29;;;;;;;1.70;1.15;;;;;;;;;;5057547;28;20028;-88
2022/06/12 09:26:54;;;;;;;2.15;1.20;;;;;;;;;;5059248;28;20041;-89
2022/06/12 09:29:31;;;;;;;2.03;1.30;;;;;;;;;;5058290;28;20090;-88
2022/06/12 09:32:24;;;;;;;2.95;1.35;;;;;;;;;;5059750;28;20475;-88
2022/06/12 09:35:01;;;;;;;1.60;1.10;;;;;;;;;;5055898;28;20052;-88
2022/06/12 09:40:29;;;;;;;1.33;1.17;;;;;;;;;;5059261;28;20485;-87
2022/06/12 09:43:01;;;;;;;3.60;1.20;;;;;;;;;;5059100;28;20053;-88
2022/06/12 09:45:59;;;;;;;2.30;1.20;;;;;;;;;;5058109;28;20394;-89
2022/06/12 09:48:43;;;;;;;2.30;1.20;;;;;;;;;;5059117;28;20116;-88
2022/06/12 09:51:34;;;;;;;2.95;1.35;;;;;;;;;;5059041;28;20040;-88
2022/06/12 09:54:36;;;;;;;1.98;1.25;;;;;;;;;;5020535;28;20049;-87
2022/06/12 09:57:05;;;;;;;2.83;1.45;;;;;;;;;;5026311;28;20065;-88
2022/06/12 09:59:42;;;;;;;6.53;4.25;;;;;;;;;;5059352;28;20041;-87
2022/06/12 10:02:43;;;;;;;4.70;3.05;;;;;;;;;;5058974;28;20040;-88
2022/06/12 10:05:31;;;;;;;1.67;1.10;;;;;;;;;;5057829;28;20498;-88
2022/06/12 10:08:15;;;;;;;2.05;1.25;;;;;;;;;;5060593;28;20047;-87
2022/06/12 10:11:07;;;;;;;2.92;1.30;;;;;;;;;;5059811;28;20064;-87
2022/06/12 10:13:59;;;;;;;2.65;1.35;;;;;;;;;;5056659;28;20045;-88
2022/06/12 10:16:45;;;;;;;2.88;1.20;;;;;;;;;;5046662;28;20053;-87
2022/06/12 10:19:19;;;;;;;1.70;1.20;;;;;;;;;;5056134;28;20036;-86
2022/06/12 10:21:50;;;;;;;1.55;1.20;;;;;;;;;;5060101;28;20040;-87
2022/06/12 10:24:17;;;;;;;3.22;1.35;;;;;;;;;;5059698;28;20474;-88
2022/06/12 10:26:58;;;;;;;2.00;1.20;;;;;;;;;;5058892;28;20075;-87
2022/06/12 10:29:25;;;;;;;1.85;1.20;;;;;;;;;;5059775;28;20045;-87
2022/06/12 10:32:01;;;;;;;2.83;1.10;;;;;;;;;;5060016;28;20051;-88
2022/06/12 10:34:29;;;;;;;2.00;1.33;;;;;;;;;;5058330;28;20128;-88
2022/06/12 10:37:24;;;;;;;2.75;1.17;;;;;;;;;;5059756;28;20040;-89
2022/06/12 10:40:16;;;;;;;1.30;1.20;;;;;;;;;;5058870;28;20041;-87
2022/06/12 10:43:08;;;;;;;3.38;1.30;;;;;;;;;;5059813;28;20485;-87
2022/06/12 10:45:40;;;;;;;1.50;1.10;;;;;;;;;;5057754;28;20032;-87
2022/06/12 10:48:29;;;;;;;1.75;1.00;;;;;;;;;;5058743;28;20064;-88
2022/06/12 10:51:05;;;;;;;2.85;1.10;;;;;;;;;;5059448;28;20032;-88
2022/06/12 10:53:32;;;;;;;2.30;1.10;;;;;;;;;;5059315;28;20127;-87
2022/06/12 10:56:24;;;;;;;3.95;1.20;;;;;;;;;;5048529;28;20053;-88
2022/06/12 10:59:19;;;;;;;1.65;1.02;;;;;;;;;;5041877;28;20030;-87
2022/06/12 11:02:06;;;;;;;2.60;1.10;;;;;;;;;;4985463;28;20071;-87
2022/06/12 11:04:47;;;;;;;2.17;1.10;;;;;;;;;;5027576;28;20452;-88
2022/06/12 11:07:29;;;;;;;1.98;1.20;;;;;;;;;;5030511;28;20044;-88
2022/06/12 11:10:13;;;;;;;1.15;1.05;;;;;;;;;;5038046;28;20033;-88
2022/06/12 11:12:42;;;;;;;3.70;1.00;;;;;;;;;;5024582;28;20116;-89
2022/06/12 11:15:25;;;;;;;2.92;1.08;;;;;;;;;;5023985;28;20075;-87
2022/06/12 11:18:27;;;;;;;1.45;1.13;;;;;;;;;;5036570;28;20593;-89
2022/06/12 11:21:04;;;;;;;1.40;1.10;;;;;;;;;;5034136;28;20032;-89
2022/06/12 11:24:09;;;;;;;1.95;1.20;;;;;;;;;;5022300;28;20042;-87
2022/06/12 11:26:40;;;;;;;1.55;1.05;;;;;;;;;;5033002;28;20048;-87
2022/06/12 11:29:22;;;;;;;1.48;1.00;;;;;;;;;;5036990;28;20108;-87
2022/06/12 11:32:14;;;;;;;1.75;1.08;;;;;;;;;;5038668;28;20405;-88
2022/06/12 11:35:11;;;;;;;2.13;1.27;;;;;;;;;;5017623;28;20060;-88
2022/06/12 11:37:39;;;;;;;2.10;1.20;;;;;;;;;;5017874;28;20038;-88
2022/06/12 11:40:15;;;;;;;1.67;1.10;;;;;;;;;;5018725;28;20037;-88
2022/06/12 11:42:49;;;;;;;2.50;1.10;;;;;;;;;;5019475;28;20096;-88
2022/06/12 11:45:14;;;;;;;1.83;1.13;;;;;;;;;;5021897;28;20036;-87
2022/06/12 11:48:17;;;;;;;2.70;1.27;;;;;;;;;;5020285;28;20057;-88
2022/06/12 11:51:33;;;;;;;1.10;0.95;;;;;;;;;;5018760;28;20105;-91
2022/06/12 11:54:19;;;;;;;1.63;1.10;;;;;;;;;;5010033;28;20400;-88
2022/06/12 11:56:56;;;;;;;1.90;0.90;;;;;;;;;;5018582;28;20048;-88
2022/06/12 11:59:51;;;;;;;1.13;1.00;;;;;;;;;;5020650;28;20102;-89
2022/06/12 12:02:44;;;;;;;3.75;1.20;;;;;;;;;;5019037;28;20048;-87
2022/06/12 12:05:12;;;;;;;2.40;1.25;;;;;;;;;;5017649;28;20109;-88
2022/06/12 12:08:04;;;;;;;2.22;1.02;;;;;;;;;;5016662;28;20033;-87
2022/06/12 12:10:48;;;;;;;2.15;1.17;;;;;;;;;;5017628;28;20490;-87
2022/06/12 12:13:25;;;;;;;1.58;1.00;;;;;;;;;;5018479;28;20032;-87
2022/06/12 12:15:58;;;;;;;2.85;0.90;;;;;;;;;;5020845;28;20120;-87
2022/06/12 12:18:30;;;;;;;1.17;1.00;;;;;;;;;;5020824;28;20109;-87
2022/06/12 12:20:57;;;;;;;2.78;1.00;;;;;;;;;;5019646;28;20025;-88
2022/06/12 12:23:29;;;;;;;1.73;1.00;;;;;;;;;;5019905;28;20057;-88
2022/06/12 12:25:58;;;;;;;1.60;0.90;;;;;;;;;;5020631;28;20403;-88
2022/06/12 12:28:30;;;;;;;1.25;1.00;;;;;;;;;;5003370;28;20608;-88
2022/06/12 12:31:01;;;;;;;1.20;0.90;;;;;;;;;;5018762;28;20052;-91
2022/06/12 12:33:28;;;;;;;3.78;1.00;;;;;;;;;;5019341;28;20048;-87
2022/06/12 12:41:46;;;;;;;1.77;1.08;;;;;;;;;;5017597;28;20030;-87
2022/06/12 12:44:16;;;;;;;2.50;1.00;;;;;;;;;;5017218;28;20122;-87
2022/06/12 12:46:51;;;;;;;1.25;0.90;;;;;;;;;;5019634;28;20097;-88
2022/06/12 12:49:35;;;;;;;2.80;1.00;;;;;;;;;;5020896;28;20044;-88
2022/06/12 12:52:04;;;;;;;1.67;0.90;;;;;;;;;;5020823;28;20044;-88
2022/06/12 12:54:45;;;;;;;1.88;1.00;;;;;;;;;;5019812;28;20092;-88
2022/06/12 12:57:12;;;;;;;2.45;1.00;;;;;;;;;;5020030;28;20048;-89
2022/06/12 12:59:51;;;;;;;1.65;1.00;;;;;;;;;;5021496;28;20037;-88
2022/06/12 13:02:25;;;;;;;1.42;1.00;;;;;;;;;;5020953;28;20124;-88
2022/06/12 13:04:54;;;;;;;2.17;0.90;;;;;;;;;;5021133;28;20034;-87
2022/06/12 13:07:43;;;;;;;1.35;1.00;;;;;;;;;;5022095;28;20026;-88
2022/06/12 13:10:30;;;;;;;2.95;0.95;;;;;;;;;;5021652;28;20034;-88
2022/06/12 13:13:04;;;;;;;1.30;0.90;;;;;;;;;;5021446;28;20094;-86
2022/06/12 13:15:59;;;;;;;3.95;1.10;;;;;;;;;;5020857;28;20046;-89
2022/06/12 13:18:46;;;;;;;1.55;0.70;;;;;;;;;;5011152;28;20050;-88
2022/06/12 13:21:21;;;;;;;1.02;0.90;;;;;;;;;;5020943;28;20033;-88
2022/06/12 13:24:17;;;;;;;1.67;0.77;;;;;;;;;;5021728;28;20332;-88
2022/06/12 13:26:43;;;;;;;2.38;0.70;;;;;;;;;;5020723;28;20038;-87
2022/06/12 13:29:21;;;;;;;1.40;0.80;;;;;;;;;;5019829;28;20065;-87
2022/06/12 13:31:53;;;;;;;1.45;0.90;;;;;;;;;;5019737;28;20033;-87
2022/06/12 13:34:19;;;;;;;1.40;0.80;;;;;;;;;;5021261;28;20034;-88
2022/06/12 13:36:45;;;;;;;1.20;0.90;;;;;;;;;;5020910;28;20026;-88
2022/06/12 13:39:31;;;;;;;0.85;0.85;;;;;;;;;;5020796;28;20041;-87
2022/06/12 13:42:03;;;;;;;1.65;0.82;;;;;;;;;;5022291;28;20045;-87
2022/06/12 13:44:34;;;;;;;1.80;0.80;;;;;;;;;;5021102;28;20042;-87
2022/06/12 13:47:25;;;;;;;1.20;0.70;;;;;;;;;;5021801;28;20038;-86
2022/06/12 13:50:15;;;;;;;1.88;0.90;;;;;;;;;;5016052;28;20053;-87
2022/06/12 13:53:18;;;;;;;0.80;0.70;;;;;;;;;;5022199;28;20033;-88
2022/06/12 13:55:55;;;;;;;0.95;0.80;;;;;;;;;;4999427;28;20511;-88
2022/06/12 13:58:33;;;;;;;1.45;0.70;;;;;;;;;;5019058;28;20042;-87
2022/06/12 14:01:21;;;;;;;0.88;0.73;;;;;;;;;;5020911;28;20049;-87
2022/06/12 14:03:53;;;;;;;1.00;0.70;;;;;;;;;;5021735;28;20033;-86
2022/06/12 14:06:24;;;;;;;1.63;0.80;;;;;;;;;;5024371;28;20042;-86
2022/06/12 14:09:03;;;;;;;1.05;0.80;;;;;;;;;;5024657;28;20096;-88
2022/06/12 14:11:31;;;;;;;0.90;0.70;;;;;;;;;;5024580;28;20045;-87
2022/06/12 14:13:57;;;;;;;1.13;0.70;;;;;;;;;;5024406;28;20030;-84
2022/06/12 14:16:26;;;;;;;0.90;0.80;;;;;;;;;;5024851;28;20041;-87
2022/06/12 14:19:05;;;;;;;0.80;0.80;;;;;;;;;;5024164;28;20528;-87
2022/06/12 14:21:39;;;;;;;1.45;0.90;;;;;;;;;;5024903;28;20117;-88
2022/06/12 14:24:13;;;;;;;1.15;0.70;;;;;;;;;;5024696;28;20037;-85
2022/06/12 14:26:45;;;;;;;1.33;0.80;;;;;;;;;;5024011;28;20491;-87
2022/06/12 14:29:29;;;;;;;1.50;0.98;;;;;;;;;;5024612;28;20030;-87
2022/06/12 14:32:26;;;;;;;1.42;1.00;;;;;;;;;;5024879;28;20037;-87
2022/06/12 14:35:14;;;;;;;1.38;0.80;;;;;;;;;;5019728;28;20050;-88
2022/06/12 14:37:43;;;;;;;0.80;0.80;;;;;;;;;;5025152;28;20029;-88
2022/06/12 14:40:30;;;;;;;2.72;1.20;;;;;;;;;;5025015;28;20034;-87
2022/06/12 14:43:14;;;;;;;2.35;1.00;;;;;;;;;;5024642;28;20037;-87
2022/06/12 14:45:46;;;;;;;1.73;1.17;;;;;;;;;;5024335;28;20038;-88
2022/06/12 14:48:20;;;;;;;2.30;2.03;;;;;;;;;;5024884;28;20068;-88
2022/06/12 14:50:47;;;;;;;2.83;1.10;;;;;;;;;;5024585;28;20042;-88
2022/06/12 14:53:12;;;;;;;1.73;0.90;;;;;;;;;;5025029;28;20028;-88
2022/06/12 14:55:39;;;;;;;2.03;1.50;;;;;;;;;;5024016;28;20562;-87
2022/06/12 14:58:14;;;;;;;2.33;1.00;;;;;;;;;;5024020;28;20030;-86
2022/06/12 15:00:40;;;;;;;4.78;1.10;;;;;;;;;;5022345;28;20049;-88
2022/06/12 15:03:14;;;;;;;1.60;0.90;;;;;;;;;;5024173;28;20042;-86
2022/06/12 15:05:40;;;;;;;1.35;0.90;;;;;;;;;;5023049;28;20037;-88
2022/06/12 15:08:05;;;;;;;0.88;0.88;;;;;;;;;;5023794;28;20041;-86
2022/06/12 15:10:31;;;;;;;2.45;0.90;;;;;;;;;;5025381;28;20301;-88
2022/06/12 15:12:57;;;;;;;2.47;1.00;;;;;;;;;;5020492;28;20038;-87
2022/06/12 15:15:24;;;;;;;1.00;0.85;;;;;;;;;;5016139;28;20037;-87
2022/06/12 15:17:50;;;;;;;0.82;0.82;;;;;;;;;;5016155;28;20068;-86
2022/06/12 15:20:18;;;;;;;1.70;0.95;;;;;;;;;;5018267;28;20034;-87
2022/06/12 15:22:44;;;;;;;0.98;0.90;;;;;;;;;;5015090;28;20030;-87
2022/06/12 15:31:22;;;;;;;1.55;1.00;;;;;;;;;;4976572;28;20105;-86
2022/06/12 15:33:47;;;;;;;1.10;0.93;;;;;;;;;;5006821;28;20060;-88
2022/06/12 15:36:13;;;;;;;1.33;0.80;;;;;;;;;;5020239;28;20410;-87
2022/06/12 15:38:39;;;;;;;1.38;1.10;;;;;;;;;;5020939;28;20034;-87
2022/06/12 15:41:05;;;;;;;3.10;0.93;;;;;;;;;;5021336;28;20468;-87
2022/06/12 15:43:31;;;;;;;1.80;0.98;;;;;;;;;;5020870;28;20036;-86
2022/06/12 15:45:58;;;;;;;1.92;0.90;;;;;;;;;;5017573;28;20568;-87
2022/06/12 15:48:24;;;;;;;1.23;0.90;;;;;;;;;;5015252;28;20038;-87
2022/06/12 15:50:51;;;;;;;1.67;0.90;;;;;;;;;;5017716;28;20383;-87
2022/06/12 15:53:17;;;;;;;1.55;1.00;;;;;;;;;;5019612;28;20033;-85